createdAt,value
2023-04-12T00:00:44.807Z,73.80
2023-04-12T00:03:51.032Z,73.91
2023-04-12T00:06:54.507Z,73.98
2023-04-12T00:09:56.895Z,73.85
2023-04-12T00:12:58.753Z,74.07
2023-04-12T00:16:00.947Z,74.96
2023-04-12T00:19:03.679Z,75.28
2023-04-12T00:22:06.245Z,75.45
2023-04-12T00:25:09.516Z,75.82
2023-04-12T00:28:11.642Z,76.91
2023-04-12T00:31:13.825Z,77.16
2023-04-12T00:34:16.045Z,78.35
2023-04-12T00:37:18.004Z,77.71
2023-04-12T00:40:21.007Z,78.67
2023-04-12T00:43:23.880Z,79.03
2023-04-12T00:46:25.755Z,78.84
2023-04-12T00:49:31.861Z,79.12
2023-04-12T00:52:36.514Z,79.70
2023-04-12T00:55:38.385Z,80.94
2023-04-12T00:58:40.206Z,81.54
2023-04-12T01:01:42.252Z,80.84
2023-04-12T01:04:45.911Z,82.10
2023-04-12T01:08:10.749Z,82.58
2023-04-12T01:11:20.764Z,81.83
2023-04-12T01:14:46.633Z,81.95
2023-04-12T01:18:05.791Z,81.38
2023-04-12T01:21:16.332Z,82.72
2023-04-12T01:24:36.923Z,81.74
2023-04-12T01:27:53.147Z,81.04
2023-04-12T01:30:56.198Z,82.65
2023-04-12T01:33:59.811Z,81.80
2023-04-12T01:37:03.625Z,82.14
2023-04-12T01:40:07.877Z,82.26
2023-04-12T01:43:13.192Z,82.23
2023-04-12T01:46:18.895Z,81.70
2023-04-12T01:49:24.613Z,81.68
2023-04-12T01:52:31.465Z,80.99
2023-04-12T01:55:37.330Z,80.43
2023-04-12T01:58:42.384Z,79.29
2023-04-12T02:01:47.103Z,78.98
2023-04-12T02:04:49.187Z,79.73
2023-04-12T02:07:51.579Z,78.54
2023-04-12T02:10:54.943Z,80.19
2023-04-12T02:13:57.499Z,80.28
2023-04-12T02:17:02.423Z,80.04
2023-04-12T02:20:10.015Z,79.50
2023-04-12T02:23:12.834Z,79.77
2023-04-12T02:26:14.687Z,79.54
2023-04-12T02:29:16.634Z,79.81
2023-04-12T02:32:18.529Z,79.64
2023-04-12T02:35:20.543Z,80.49
2023-04-12T02:38:23.344Z,80.17
2023-04-12T02:41:25.623Z,79.95
2023-04-12T02:44:31.244Z,79.90
2023-04-12T02:47:33.208Z,80.16
2023-04-12T02:50:36.908Z,80.44
2023-04-12T02:53:38.966Z,80.74
2023-04-12T02:56:40.786Z,80.31
2023-04-12T02:59:43.083Z,79.68
2023-04-12T03:02:45.254Z,80.55
2023-04-12T03:05:48.067Z,80.68
2023-04-12T03:08:50.526Z,81.73
2023-04-12T03:11:52.543Z,80.80
2023-04-12T03:14:54.719Z,80.50
2023-04-12T03:17:56.580Z,80.81
2023-04-12T03:20:58.575Z,80.46
2023-04-12T03:24:00.905Z,80.94
2023-04-12T03:27:04.288Z,80.25
2023-04-12T03:30:07.068Z,80.20
2023-04-12T03:33:09.141Z,81.22
2023-04-12T03:36:11.353Z,80.57
2023-04-12T03:39:13.222Z,80.77
2023-04-12T03:42:29.350Z,80.83
2023-04-12T03:45:34.024Z,80.88
2023-04-12T03:48:36.330Z,81.05
2023-04-12T03:51:42.891Z,82.26
2023-04-12T03:54:45.041Z,80.85
2023-04-12T03:57:46.962Z,81.34
2023-04-12T04:00:49.322Z,81.41
2023-04-12T04:03:51.393Z,80.05
2023-04-12T04:06:53.782Z,79.40
2023-04-12T04:09:56.142Z,78.93
2023-04-12T04:12:58.119Z,79.46
2023-04-12T04:16:04.584Z,78.93
2023-04-12T04:19:06.442Z,79.32
2023-04-12T04:22:10.119Z,78.97
2023-04-12T04:25:14.334Z,78.44
2023-04-12T04:28:17.070Z,78.63
2023-04-12T04:31:19.175Z,78.14
2023-04-12T04:34:22.370Z,77.97
2023-04-12T04:37:25.108Z,77.87
2023-04-12T04:40:27.253Z,78.16
2023-04-12T04:43:34.198Z,78.20
2023-04-12T04:46:39.747Z,76.46
2023-04-12T04:49:41.683Z,78.02
2023-04-12T04:52:44.694Z,76.93
2023-04-12T04:55:47.796Z,76.74
2023-04-12T04:58:50.639Z,75.09
2023-04-12T05:01:52.530Z,75.40
2023-04-12T05:05:00.028Z,76.02
2023-04-12T05:08:02.201Z,75.40
2023-04-12T05:11:04.533Z,76.13
2023-04-12T05:14:06.605Z,73.93
2023-04-12T05:17:08.428Z,73.52
2023-04-12T05:20:13.655Z,73.00
2023-04-12T05:23:17.433Z,72.58
2023-04-12T05:26:19.360Z,74.41
2023-04-12T05:29:22.171Z,74.74
2023-04-12T05:32:27.087Z,73.78
2023-04-12T05:35:29.041Z,71.35
2023-04-12T05:38:30.953Z,71.40
2023-04-12T05:41:32.849Z,72.36
2023-04-12T05:44:36.864Z,72.52
2023-04-12T05:47:38.695Z,72.41
2023-04-12T05:50:40.676Z,70.66
2023-04-12T05:53:42.667Z,71.08
2023-04-12T05:56:44.497Z,71.63
2023-04-12T05:59:59.333Z,72.77
2023-04-12T06:03:01.971Z,69.86
2023-04-12T06:06:04.498Z,70.22
2023-04-12T06:09:06.389Z,70.85
2023-04-12T06:12:08.216Z,69.93
2023-04-12T06:15:10.706Z,67.54
2023-04-12T06:18:13.295Z,66.23
2023-04-12T06:21:15.439Z,62.09
2023-04-12T06:24:18.098Z,62.58
2023-04-12T06:27:20.856Z,65.20
2023-04-12T06:30:23.190Z,66.37
2023-04-12T06:33:26.191Z,64.65
2023-04-12T06:36:28.055Z,65.18
2023-04-12T06:39:30.360Z,64.73
2023-04-12T06:42:32.197Z,65.28
2023-04-12T06:45:34.091Z,66.00
2023-04-12T06:48:36.200Z,65.98
2023-04-12T06:51:37.998Z,66.60
2023-04-12T06:54:40.088Z,64.02
2023-04-12T06:57:43.206Z,63.51
2023-04-12T07:00:45.168Z,63.37
2023-04-12T07:03:47.236Z,63.62
2023-04-12T07:06:49.347Z,63.54
2023-04-12T07:09:52.409Z,62.03
2023-04-12T07:12:54.263Z,63.89
2023-04-12T07:15:58.164Z,64.55
2023-04-12T07:19:00.882Z,64.43
2023-04-12T07:22:02.947Z,63.44
2023-04-12T07:25:10.002Z,62.06
2023-04-12T07:28:11.996Z,62.20
2023-04-12T07:31:13.968Z,59.88
2023-04-12T07:34:15.975Z,62.14
2023-04-12T07:37:18.040Z,61.38
2023-04-12T07:40:20.703Z,62.70
2023-04-12T07:43:23.277Z,60.95
2023-04-12T07:46:25.482Z,61.40
2023-04-12T07:49:27.902Z,59.14
2023-04-12T07:52:29.748Z,61.97
2023-04-12T07:55:31.651Z,62.36
2023-04-12T07:58:34.791Z,60.59
2023-04-12T08:01:37.024Z,59.47
2023-04-12T08:04:38.956Z,59.99
2023-04-12T08:07:41.070Z,60.89
2023-04-12T08:10:43.639Z,58.67
2023-04-12T08:13:46.501Z,58.52
2023-04-12T08:16:48.785Z,60.32
2023-04-12T08:19:50.642Z,58.92
2023-04-12T08:22:52.830Z,58.92
2023-04-12T08:26:03.612Z,59.22
2023-04-12T08:29:06.138Z,60.34
2023-04-12T08:32:12.554Z,60.00
2023-04-12T08:35:16.085Z,55.42
2023-04-12T08:38:18.659Z,54.17
2023-04-12T08:41:21.560Z,51.34
2023-04-12T08:44:35.953Z,52.56
2023-04-12T08:47:40.569Z,52.04
2023-04-12T08:50:44.580Z,52.74
2023-04-12T08:53:47.386Z,53.14
2023-04-12T08:56:49.517Z,53.41
2023-04-12T08:59:53.673Z,54.81
2023-04-12T09:02:56.224Z,53.36
2023-04-12T09:06:05.046Z,53.03
2023-04-12T09:09:08.253Z,56.13
2023-04-12T09:12:11.452Z,55.63
2023-04-12T09:15:15.708Z,54.21
2023-04-12T09:18:18.973Z,53.38
2023-04-12T09:21:20.997Z,48.81
2023-04-12T09:24:26.113Z,52.61
2023-04-12T09:27:29.735Z,51.73
2023-04-12T09:30:42.294Z,51.49
2023-04-12T09:33:44.363Z,53.08
2023-04-12T09:36:46.195Z,49.58
2023-04-12T09:40:02.962Z,51.66
2023-04-12T09:43:07.177Z,48.16
2023-04-12T09:46:14.011Z,47.48
2023-04-12T09:49:15.939Z,49.79
2023-04-12T09:52:18.599Z,50.36
2023-04-12T09:55:23.093Z,50.50
2023-04-12T09:58:26.694Z,51.69
2023-04-12T10:01:39.405Z,51.96
2023-04-12T10:04:42.332Z,52.17
2023-04-12T10:07:45.281Z,51.32
2023-04-12T10:10:47.615Z,51.02
2023-04-12T10:13:50.464Z,50.81
2023-04-12T10:16:56.101Z,51.24
2023-04-12T10:19:59.286Z,52.77
2023-04-12T10:23:01.365Z,52.47
2023-04-12T10:26:05.239Z,52.93
2023-04-12T10:29:27.175Z,52.02
2023-04-12T10:32:29.124Z,54.52
2023-04-12T10:35:51.717Z,53.58
2023-04-12T10:39:09.996Z,53.89
2023-04-12T10:42:27.973Z,55.10
2023-04-12T10:45:39.219Z,53.02
2023-04-12T10:48:52.501Z,53.31
2023-04-12T10:52:14.786Z,54.59
2023-04-12T10:55:30.133Z,53.72
2023-04-12T10:59:07.969Z,56.07
2023-04-12T11:02:11.890Z,53.53
2023-04-12T11:05:14.798Z,55.13
2023-04-12T11:08:19.096Z,51.74
2023-04-12T11:11:22.882Z,52.05
2023-04-12T11:14:34.050Z,54.13
2023-04-12T11:17:37.777Z,54.25
2023-04-12T11:20:41.026Z,52.97
2023-04-12T11:23:43.888Z,53.85
2023-04-12T11:26:46.859Z,52.46
2023-04-12T11:29:50.970Z,52.04
2023-04-12T11:32:53.021Z,49.90
2023-04-12T11:35:55.294Z,51.54
2023-04-12T11:38:57.438Z,53.15
2023-04-12T11:42:00.156Z,52.54
2023-04-12T11:45:09.255Z,51.75
2023-04-12T11:48:45.376Z,51.62
2023-04-12T11:51:49.613Z,51.41
2023-04-12T11:54:57.625Z,50.44
2023-04-12T11:57:59.988Z,52.00
2023-04-12T12:01:04.072Z,50.83
2023-04-12T12:04:06.844Z,53.95
2023-04-12T12:07:09.480Z,54.56
2023-04-12T12:10:13.363Z,51.38
2023-04-12T12:13:21.228Z,52.26
2023-04-12T12:16:28.954Z,51.40
2023-04-12T12:19:37.931Z,50.27
2023-04-12T12:22:46.691Z,48.65
2023-04-12T12:25:48.799Z,47.41
2023-04-12T12:28:51.743Z,49.23
2023-04-12T12:31:54.073Z,48.35
2023-04-12T12:34:59.511Z,48.75
2023-04-12T12:38:01.526Z,48.91
2023-04-12T12:41:20.984Z,47.88
2023-04-12T12:44:24.049Z,50.78
2023-04-12T12:47:26.338Z,51.96
2023-04-12T12:50:30.516Z,50.14
2023-04-12T12:53:32.403Z,48.64
2023-04-12T12:56:35.885Z,46.77
2023-04-12T12:59:37.753Z,47.45
2023-04-12T13:02:40.335Z,48.77
2023-04-12T13:05:42.398Z,50.49
2023-04-12T13:08:44.405Z,49.02
2023-04-12T13:11:46.400Z,50.40
2023-04-12T13:14:48.707Z,50.81
2023-04-12T13:17:54.486Z,52.05
2023-04-12T13:20:56.737Z,50.59
2023-04-12T13:23:58.714Z,52.18
2023-04-12T13:27:00.884Z,48.75
2023-04-12T13:30:02.910Z,50.03
2023-04-12T13:33:04.845Z,49.57
2023-04-12T13:36:07.298Z,52.16
2023-04-12T13:39:09.270Z,50.59
2023-04-12T13:42:11.609Z,53.40
2023-04-12T13:45:13.577Z,52.95
2023-04-12T13:48:15.786Z,54.08
2023-04-12T13:51:18.174Z,51.43
2023-04-12T13:54:20.163Z,48.75
2023-04-12T13:57:22.705Z,49.83
2023-04-12T14:00:25.113Z,47.50
2023-04-12T14:03:27.034Z,48.71
2023-04-12T14:06:30.612Z,49.03
2023-04-12T14:09:34.903Z,48.69
2023-04-12T14:12:37.111Z,49.20
2023-04-12T14:15:39.109Z,49.28
2023-04-12T14:18:41.480Z,51.68
2023-04-12T14:21:43.407Z,49.39
2023-04-12T14:24:45.699Z,50.54
2023-04-12T14:27:47.539Z,49.99
2023-04-12T14:30:51.389Z,50.99
2023-04-12T14:33:53.807Z,50.40
2023-04-12T14:36:56.410Z,49.49
2023-04-12T14:39:58.800Z,47.60
2023-04-12T14:43:00.959Z,49.93
2023-04-12T14:46:02.802Z,50.48
2023-04-12T14:49:05.299Z,48.88
2023-04-12T14:52:08.089Z,50.21
2023-04-12T14:55:10.807Z,49.07
2023-04-12T14:58:13.508Z,51.24
2023-04-12T15:01:18.285Z,48.37
2023-04-12T15:04:20.558Z,49.92
2023-04-12T15:07:22.606Z,50.96
2023-04-12T15:10:26.236Z,50.15
2023-04-12T15:13:33.068Z,51.31
2023-04-12T15:16:35.616Z,50.91
2023-04-12T15:19:40.087Z,50.69
2023-04-12T15:22:42.187Z,51.22
2023-04-12T15:25:43.990Z,51.18
2023-04-12T15:28:46.266Z,51.72
2023-04-12T15:31:48.355Z,54.26
2023-04-12T15:34:51.165Z,52.67
2023-04-12T15:37:54.398Z,54.19
2023-04-12T15:40:59.984Z,54.43
2023-04-12T15:44:02.584Z,53.94
2023-04-12T15:47:11.033Z,54.21
2023-04-12T15:50:14.242Z,53.50
2023-04-12T15:53:21.550Z,52.67
2023-04-12T15:56:26.484Z,53.45
2023-04-12T15:59:29.945Z,57.18
2023-04-12T16:02:33.640Z,54.83
2023-04-12T16:05:36.275Z,55.29
2023-04-12T16:08:38.374Z,55.57
2023-04-12T16:11:40.956Z,56.08
2023-04-12T16:14:44.193Z,53.55
2023-04-12T16:17:47.512Z,54.19
2023-04-12T16:20:49.812Z,53.93
2023-04-12T16:23:53.140Z,54.65
2023-04-12T16:26:56.054Z,54.21
2023-04-12T16:29:59.454Z,54.53
2023-04-12T16:33:02.031Z,53.78
2023-04-12T16:36:08.467Z,54.03
2023-04-12T16:39:11.561Z,54.45
2023-04-12T16:42:14.495Z,56.30
2023-04-12T16:45:16.608Z,55.11
2023-04-12T16:48:21.439Z,56.08
2023-04-12T16:51:23.655Z,56.33
2023-04-12T16:54:26.722Z,56.06
2023-04-12T16:57:29.782Z,56.73
2023-04-12T17:00:33.318Z,57.83
2023-04-12T17:03:35.834Z,57.61
2023-04-12T17:06:39.641Z,59.02
2023-04-12T17:09:45.714Z,60.90
2023-04-12T17:12:58.542Z,61.41
2023-04-12T17:16:00.868Z,63.65
2023-04-12T17:19:03.441Z,63.83
2023-04-12T17:22:05.573Z,63.96
2023-04-12T17:25:10.269Z,62.13
2023-04-12T17:28:13.049Z,62.34
2023-04-12T17:31:15.539Z,63.47
2023-04-12T17:34:17.826Z,65.61
2023-04-12T17:37:20.091Z,62.75
2023-04-12T17:40:22.476Z,63.13
2023-04-12T17:43:25.068Z,64.35
2023-04-12T17:46:27.414Z,64.89
2023-04-12T17:49:29.614Z,64.70
2023-04-12T17:52:32.104Z,63.42
2023-04-12T17:55:34.790Z,63.05
2023-04-12T17:58:37.156Z,64.14
2023-04-12T18:01:39.511Z,64.35
2023-04-12T18:04:42.131Z,65.76
2023-04-12T18:07:44.816Z,66.53
2023-04-12T18:10:47.440Z,67.37
2023-04-12T18:13:49.629Z,67.95
2023-04-12T18:16:52.001Z,68.79
2023-04-12T18:19:56.921Z,69.03
2023-04-12T18:23:00.237Z,69.44
2023-04-12T18:26:05.895Z,68.85
2023-04-12T18:29:08.383Z,69.27
2023-04-12T18:32:10.819Z,69.55
2023-04-12T18:35:13.544Z,69.80
2023-04-12T18:38:17.457Z,70.45
2023-04-12T18:41:19.769Z,69.88
2023-04-12T18:44:22.248Z,70.35
2023-04-12T18:47:26.646Z,71.42
2023-04-12T18:50:29.229Z,71.59
2023-04-12T18:53:31.140Z,72.03
2023-04-12T18:56:33.726Z,71.53
2023-04-12T18:59:36.033Z,72.13
2023-04-12T19:02:38.599Z,72.56
2023-04-12T19:05:41.061Z,73.01
2023-04-12T19:08:43.252Z,72.64
2023-04-12T19:11:45.850Z,72.57
2023-04-12T19:14:48.637Z,73.07
2023-04-12T19:17:53.247Z,73.43
2023-04-12T19:20:57.291Z,73.14
2023-04-12T19:24:02.460Z,74.14
2023-04-12T19:27:05.042Z,72.85
2023-04-12T19:30:11.487Z,73.44
2023-04-12T19:33:13.639Z,73.50
2023-04-12T19:36:16.010Z,74.29
2023-04-12T19:39:20.007Z,74.10
2023-04-12T19:42:22.587Z,73.94
2023-04-12T19:45:26.261Z,74.76
2023-04-12T19:48:29.167Z,75.22
2023-04-12T19:51:31.649Z,74.13
2023-04-12T19:54:34.271Z,75.27
2023-04-12T19:57:38.186Z,74.80
2023-04-12T20:00:41.955Z,75.10
2023-04-12T20:03:44.228Z,74.91
2023-04-12T20:06:47.183Z,75.23
2023-04-12T20:09:49.464Z,75.57
2023-04-12T20:12:51.968Z,75.25
2023-04-12T20:15:54.551Z,75.19
2023-04-12T20:18:59.152Z,75.30
2023-04-12T20:22:04.230Z,76.74
2023-04-12T20:25:08.460Z,76.85
2023-04-12T20:28:10.614Z,77.10
2023-04-12T20:31:15.968Z,77.33
2023-04-12T20:34:19.347Z,76.55
2023-04-12T20:37:23.322Z,77.17
2023-04-12T20:40:30.297Z,76.91
2023-04-12T20:43:46.632Z,76.87
2023-04-12T20:46:49.077Z,76.25
2023-04-12T20:49:52.324Z,76.04
2023-04-12T20:52:56.288Z,76.63
2023-04-12T20:55:58.410Z,75.98
2023-04-12T20:59:00.705Z,75.61
2023-04-12T21:02:02.914Z,74.81
2023-04-12T21:05:06.558Z,74.97
2023-04-12T21:08:08.587Z,75.17
2023-04-12T21:11:11.737Z,75.48
2023-04-12T21:14:14.376Z,76.02
2023-04-12T21:17:16.947Z,76.48
2023-04-12T21:20:19.047Z,76.02
2023-04-12T21:23:23.870Z,76.31
2023-04-12T21:26:29.589Z,76.80
2023-04-12T21:29:43.972Z,76.22
2023-04-12T21:32:53.700Z,76.60
2023-04-12T21:35:58.115Z,78.33
2023-04-12T21:39:05.663Z,77.38
2023-04-12T21:42:17.304Z,77.58
2023-04-12T21:45:28.685Z,77.36
2023-04-12T21:48:31.774Z,78.46
2023-04-12T21:51:34.708Z,78.30
2023-04-12T21:54:37.451Z,78.19
2023-04-12T21:57:40.545Z,77.48
2023-04-12T22:00:47.833Z,77.65
2023-04-12T22:04:01.194Z,77.02
2023-04-12T22:07:04.407Z,77.14
2023-04-12T22:10:12.054Z,77.25
2023-04-12T22:13:16.155Z,76.48
2023-04-12T22:16:17.973Z,76.85
2023-04-12T22:19:19.849Z,76.49
2023-04-12T22:22:23.451Z,77.52
2023-04-12T22:25:25.780Z,77.13
2023-04-12T22:28:27.935Z,76.29
2023-04-12T22:31:30.152Z,76.83
2023-04-12T22:34:32.561Z,77.30
2023-04-12T22:37:35.182Z,76.67
2023-04-12T22:40:38.261Z,76.52
2023-04-12T22:43:43.337Z,77.29
2023-04-12T22:46:48.484Z,76.86
2023-04-12T22:49:50.917Z,77.77
2023-04-12T22:52:54.454Z,77.83
2023-04-12T22:55:57.256Z,77.78
2023-04-12T22:58:59.631Z,77.81
2023-04-12T23:02:01.859Z,78.82
2023-04-12T23:05:04.563Z,79.15
2023-04-12T23:08:06.668Z,79.46
2023-04-12T23:11:08.599Z,78.70
2023-04-12T23:14:10.591Z,78.75
2023-04-12T23:17:12.586Z,79.90
2023-04-12T23:20:14.963Z,79.05
2023-04-12T23:23:17.073Z,79.46
2023-04-12T23:26:19.911Z,79.63
2023-04-12T23:29:25.691Z,79.42
2023-04-12T23:32:27.665Z,79.91
2023-04-12T23:35:29.654Z,80.41
2023-04-12T23:38:33.782Z,79.57
2023-04-12T23:41:36.188Z,79.54
2023-04-12T23:44:38.089Z,80.80
2023-04-12T23:47:40.119Z,80.16
2023-04-12T23:50:45.818Z,80.73
2023-04-12T23:53:47.676Z,79.56
2023-04-12T23:56:49.478Z,78.91
2023-04-12T23:59:51.870Z,79.78
